createdAt,value
2022-11-08T00:00:05.626Z,98838.97
2022-11-08T00:02:50.827Z,98837.41
2022-11-08T00:05:54.980Z,98835.81
2022-11-08T00:08:58.855Z,98839.03
2022-11-08T00:12:02.604Z,98835.47
2022-11-08T00:14:47.975Z,98845.00
2022-11-08T00:17:33.267Z,98841.00
2022-11-08T00:20:18.504Z,98841.00
2022-11-08T00:23:04.625Z,98845.00
2022-11-08T00:25:54.808Z,98838.22
2022-11-08T00:28:40.029Z,98839.81
2022-11-08T00:31:25.189Z,98843.78
2022-11-08T00:34:10.729Z,98838.69
2022-11-08T00:36:56.214Z,98831.91
2022-11-08T00:39:41.989Z,98832.31
2022-11-08T00:42:27.515Z,98837.88
2022-11-08T00:45:12.930Z,98839.44
2022-11-08T00:47:58.169Z,98841.88
2022-11-08T00:50:43.477Z,98839.88
2022-11-08T00:53:29.264Z,98835.09
2022-11-08T00:56:14.832Z,98834.31
2022-11-08T00:59:00.522Z,98837.88
2022-11-08T01:01:47.097Z,98828.78
2022-11-08T01:04:32.240Z,98830.78
2022-11-08T01:07:17.718Z,98832.00
2022-11-08T01:10:03.157Z,98818.91
2022-11-08T01:12:48.440Z,98810.59
2022-11-08T01:15:37.924Z,98819.69
2022-11-08T01:18:23.157Z,98815.78
2022-11-08T01:21:08.722Z,98807.03
2022-11-08T01:23:55.096Z,98806.25
2022-11-08T01:26:40.626Z,98801.50
2022-11-08T01:29:25.984Z,98809.47
2022-11-08T01:32:11.077Z,98803.09
2022-11-08T01:34:56.647Z,98809.09
2022-11-08T01:37:41.923Z,98800.34
2022-11-08T01:40:28.636Z,98801.13
2022-11-08T01:43:44.070Z,98798.78
2022-11-08T01:46:45.457Z,98788.09
2022-11-08T01:49:45.631Z,98787.69
2022-11-08T01:52:42.647Z,98786.56
2022-11-08T01:55:36.289Z,98779.00
2022-11-08T01:58:24.117Z,98775.47
2022-11-08T02:01:10.203Z,98773.13
2022-11-08T02:03:55.677Z,98769.56
2022-11-08T02:06:42.440Z,98767.22
2022-11-08T02:09:28.580Z,98768.34
2022-11-08T02:12:15.799Z,98765.56
2022-11-08T02:15:01.842Z,98764.03
2022-11-08T02:17:47.356Z,98768.34
2022-11-08T02:20:34.167Z,98770.75
2022-11-08T02:23:27.556Z,98770.34
2022-11-08T02:26:13.355Z,98769.56
2022-11-08T02:28:59.097Z,98779.44
2022-11-08T02:31:44.358Z,98766.78
2022-11-08T02:34:32.344Z,98765.22
2022-11-08T02:37:20.199Z,98756.91
2022-11-08T02:40:06.008Z,98754.13
2022-11-08T02:42:51.259Z,98749.81
2022-11-08T02:45:36.566Z,98748.25
2022-11-08T02:48:21.976Z,98751.03
2022-11-08T02:51:07.554Z,98751.34
2022-11-08T02:53:52.656Z,98760.88
2022-11-08T02:56:37.902Z,98758.13
2022-11-08T02:59:23.074Z,98763.66
2022-11-08T03:02:08.722Z,98768.44
2022-11-08T03:04:54.153Z,98765.66
2022-11-08T03:07:39.497Z,98764.44
2022-11-08T03:10:26.638Z,98763.66
2022-11-08T03:13:12.078Z,98758.88
2022-11-08T03:15:57.353Z,98756.56
2022-11-08T03:18:42.516Z,98760.53
2022-11-08T03:21:27.822Z,98768.84
2022-11-08T03:24:13.116Z,98766.06
2022-11-08T03:26:58.299Z,98772.38
2022-11-08T03:29:43.518Z,98773.19
2022-11-08T03:32:28.776Z,98771.63
2022-11-08T03:35:14.576Z,98777.94
2022-11-08T03:37:59.969Z,98777.16
2022-11-08T03:40:46.254Z,98781.94
2022-11-08T03:43:31.572Z,98778.75
2022-11-08T03:46:16.766Z,98777.94
2022-11-08T03:49:02.155Z,98777.16
2022-11-08T03:51:47.428Z,98788.25
2022-11-08T03:54:32.730Z,98780.34
2022-11-08T03:57:18.003Z,98779.56
2022-11-08T04:00:05.411Z,98778.78
2022-11-08T04:03:02.452Z,98774.03
2022-11-08T04:05:47.985Z,98776.81
2022-11-08T04:08:33.272Z,98773.25
2022-11-08T04:11:37.093Z,98772.47
2022-11-08T04:14:40.681Z,98778.03
2022-11-08T04:17:46.057Z,98776.03
2022-11-08T04:20:50.024Z,98768.09
2022-11-08T04:23:37.008Z,98766.09
2022-11-08T04:26:22.687Z,98772.88
2022-11-08T04:29:09.352Z,98773.63
2022-11-08T04:31:54.303Z,98778.81
2022-11-08T04:34:39.642Z,98771.38
2022-11-08T04:37:25.023Z,98774.13
2022-11-08T04:40:11.247Z,98765.81
2022-11-08T04:42:56.983Z,98764.59
2022-11-08T04:45:42.387Z,98769.38
2022-11-08T04:48:27.802Z,98770.94
2022-11-08T04:51:18.822Z,98774.84
2022-11-08T04:54:07.618Z,98775.25
2022-11-08T04:56:52.898Z,98770.06
2022-11-08T04:59:38.183Z,98767.66
2022-11-08T05:02:23.387Z,98769.56
2022-11-08T05:05:10.053Z,98768.69
2022-11-08T05:07:55.407Z,98767.44
2022-11-08T05:10:40.652Z,98770.13
2022-11-08T05:13:26.003Z,98772.84
2022-11-08T05:16:17.271Z,98773.91
2022-11-08T05:19:03.370Z,98775.84
2022-11-08T05:22:07.356Z,98781.31
2022-11-08T05:24:53.475Z,98781.59
2022-11-08T05:27:38.767Z,98777.97
2022-11-08T05:30:24.060Z,98782.22
2022-11-08T05:33:09.756Z,98780.94
2022-11-08T05:35:55.725Z,98781.66
2022-11-08T05:38:41.981Z,98785.13
2022-11-08T05:41:27.583Z,98781.50
2022-11-08T05:44:12.790Z,98791.31
2022-11-08T05:46:58.203Z,98792.53
2022-11-08T05:49:43.507Z,98791.31
2022-11-08T05:52:29.061Z,98797.22
2022-11-08T05:55:14.522Z,98795.56
2022-11-08T05:57:59.857Z,98797.16
2022-11-08T06:00:45.337Z,98792.38
2022-11-08T06:03:30.988Z,98798.28
2022-11-08T06:06:20.849Z,98804.19
2022-11-08T06:09:06.310Z,98797.50
2022-11-08T06:11:51.469Z,98807.38
2022-11-08T06:14:36.816Z,98796.28
2022-11-08T06:17:26.014Z,98793.09
2022-11-08T06:20:14.450Z,98794.22
2022-11-08T06:23:00.235Z,98792.22
2022-11-08T06:25:47.696Z,98796.13
2022-11-08T06:28:33.084Z,98798.47
2022-11-08T06:31:18.631Z,98794.09
2022-11-08T06:34:03.877Z,98796.09
2022-11-08T06:36:49.045Z,98792.09
2022-11-08T06:39:34.450Z,98789.31
2022-11-08T06:42:19.736Z,98793.31
2022-11-08T06:45:05.446Z,98796.94
2022-11-08T06:48:00.714Z,98781.13
2022-11-08T06:50:46.336Z,98787.13
2022-11-08T06:53:32.453Z,98780.00
2022-11-08T06:56:17.991Z,98783.19
2022-11-08T06:59:03.517Z,98783.63
2022-11-08T07:01:49.131Z,98777.38
2022-11-08T07:04:34.451Z,98782.16
2022-11-08T07:07:19.713Z,98779.03
2022-11-08T07:10:06.149Z,98782.22
2022-11-08T07:13:00.022Z,98783.84
2022-11-08T07:15:47.632Z,98783.50
2022-11-08T07:18:33.234Z,98784.72
2022-11-08T07:21:18.689Z,98775.25
2022-11-08T07:24:04.257Z,98782.78
2022-11-08T07:26:49.727Z,98776.47
2022-11-08T07:29:35.062Z,98776.88
2022-11-08T07:32:20.296Z,98776.53
2022-11-08T07:35:06.263Z,98769.44
2022-11-08T07:37:51.744Z,98772.19
2022-11-08T07:40:37.116Z,98773.41
2022-11-08T07:43:22.375Z,98773.06
2022-11-08T07:46:07.764Z,98764.75
2022-11-08T07:48:52.937Z,98771.50
2022-11-08T07:51:38.234Z,98764.38
2022-11-08T07:54:23.289Z,98767.16
2022-11-08T07:57:08.538Z,98759.25
2022-11-08T07:59:53.897Z,98766.81
2022-11-08T08:02:39.163Z,98765.22
2022-11-08T08:05:25.334Z,98764.44
2022-11-08T08:08:13.776Z,98758.91
2022-11-08T08:11:02.659Z,98757.34
2022-11-08T08:13:47.883Z,98753.00
2022-11-08T08:16:33.132Z,98755.78
2022-11-08T08:19:18.642Z,98754.22
2022-11-08T08:22:03.836Z,98745.09
2022-11-08T08:24:49.091Z,98756.19
2022-11-08T08:27:34.402Z,98754.63
2022-11-08T08:30:20.649Z,98749.50
2022-11-08T08:33:34.154Z,98753.09
2022-11-08T08:36:17.600Z,98746.75
2022-11-08T08:39:03.074Z,98745.97
2022-11-08T08:41:48.281Z,98740.41
2022-11-08T08:44:33.497Z,98736.88
2022-11-08T08:47:18.747Z,98737.66
2022-11-08T08:50:04.288Z,98734.09
2022-11-08T08:52:49.787Z,98736.09
2022-11-08T08:55:37.815Z,98737.66
2022-11-08T08:58:23.463Z,98724.66
2022-11-08T09:04:18.143Z,98721.88
2022-11-08T09:07:03.376Z,98722.66
2022-11-08T09:09:48.812Z,98719.88
2022-11-08T09:12:35.074Z,98719.88
2022-11-08T09:15:20.679Z,98719.09
2022-11-08T09:18:06.754Z,98721.06
2022-11-08T09:20:51.849Z,98721.88
2022-11-08T09:23:37.119Z,98714.75
2022-11-08T09:26:22.287Z,98721.88
2022-11-08T09:29:07.522Z,98721.88
2022-11-08T09:31:53.564Z,98715.97
2022-11-08T09:34:39.229Z,98714.75
2022-11-08T09:37:25.549Z,98712.75
2022-11-08T09:40:20.644Z,98708.00
2022-11-08T09:43:37.950Z,98714.75
2022-11-08T09:46:53.573Z,98710.78
2022-11-08T09:49:47.163Z,98711.56
2022-11-08T09:52:35.029Z,98708.38
2022-11-08T09:55:24.825Z,98702.00
2022-11-08T09:58:36.829Z,98703.59
2022-11-08T10:01:26.946Z,98704.38
2022-11-08T10:04:16.791Z,98705.13
2022-11-08T10:07:07.629Z,98708.72
2022-11-08T10:10:34.334Z,98699.59
2022-11-08T10:13:32.195Z,98703.59
2022-11-08T10:16:27.547Z,98698.03
2022-11-08T10:19:37.359Z,98698.81
2022-11-08T10:22:36.392Z,98690.50
2022-11-08T10:25:33.031Z,98690.91
2022-11-08T10:28:23.214Z,98688.59
2022-11-08T10:31:12.782Z,98681.06
2022-11-08T10:34:01.951Z,98686.19
2022-11-08T10:36:49.214Z,98684.59
2022-11-08T10:39:41.330Z,98683.06
2022-11-08T10:42:50.461Z,98677.50
2022-11-08T10:45:35.836Z,98678.69
2022-11-08T10:48:21.363Z,98667.59
2022-11-08T10:51:08.300Z,98662.06
2022-11-08T10:53:53.672Z,98671.97
2022-11-08T10:56:55.812Z,98668.81
2022-11-08T10:59:42.084Z,98663.28
2022-11-08T11:02:35.643Z,98656.97
2022-11-08T11:05:31.792Z,98656.50
2022-11-08T11:08:17.565Z,98656.16
2022-11-08T11:11:32.206Z,98642.28
2022-11-08T11:14:22.731Z,98637.56
2022-11-08T11:17:17.494Z,98653.38
2022-11-08T11:20:02.882Z,98642.28
2022-11-08T11:22:49.818Z,98651.84
2022-11-08T11:25:34.998Z,98649.84
2022-11-08T11:28:20.487Z,98649.06
2022-11-08T11:31:17.078Z,98646.28
2022-11-08T11:34:17.999Z,98647.84
2022-11-08T11:37:09.991Z,98647.84
2022-11-08T11:40:07.349Z,98646.66
2022-11-08T11:43:11.559Z,98641.09
2022-11-08T11:46:00.410Z,98632.78
2022-11-08T11:49:06.893Z,98645.88
2022-11-08T11:51:56.604Z,98639.88
2022-11-08T11:54:45.151Z,98631.50
2022-11-08T11:57:43.652Z,98623.94
2022-11-08T12:00:29.067Z,98625.84
2022-11-08T12:03:47.812Z,98627.41
2022-11-08T12:06:58.604Z,98626.19
2022-11-08T12:10:30.303Z,98614.25
2022-11-08T12:13:23.872Z,98603.50
2022-11-08T12:16:24.138Z,98610.25
2022-11-08T12:19:38.302Z,98602.72
2022-11-08T12:22:23.361Z,98589.66
2022-11-08T12:25:41.423Z,98600.38
2022-11-08T12:28:39.819Z,98603.16
2022-11-08T12:31:35.104Z,98600.38
2022-11-08T12:34:20.337Z,98584.16
2022-11-08T12:37:47.222Z,98594.50
2022-11-08T12:40:53.036Z,98602.03
2022-11-08T12:44:04.410Z,98604.00
2022-11-08T12:47:15.631Z,98599.69
2022-11-08T12:50:20.779Z,98599.69
2022-11-08T12:53:45.408Z,98594.56
2022-11-08T12:56:39.531Z,98598.91
2022-11-08T12:59:42.689Z,98592.56
2022-11-08T13:02:31.990Z,98585.81
2022-11-08T13:05:25.805Z,98594.03
2022-11-08T13:08:40.587Z,98582.09
2022-11-08T13:12:07.271Z,98574.47
2022-11-08T13:14:52.857Z,98577.59
2022-11-08T13:17:38.199Z,98563.28
2022-11-08T13:20:46.545Z,98558.44
2022-11-08T13:23:33.190Z,98566.69
2022-11-08T13:26:24.502Z,98570.94
2022-11-08T13:29:16.027Z,98564.50
2022-11-08T13:32:18.388Z,98563.19
2022-11-08T13:35:27.074Z,98559.56
2022-11-08T13:38:53.085Z,98552.00
2022-11-08T13:42:17.045Z,98551.13
2022-11-08T13:45:08.443Z,98546.31
2022-11-08T13:47:57.167Z,98543.53
2022-11-08T13:50:48.049Z,98537.09
2022-11-08T13:53:49.887Z,98535.91
2022-11-08T13:56:45.873Z,98538.13
2022-11-08T13:59:31.456Z,98540.03
2022-11-08T14:02:23.319Z,98542.81
2022-11-08T14:05:22.493Z,98536.41
2022-11-08T14:08:19.940Z,98541.94
2022-11-08T14:11:29.769Z,98531.19
2022-11-08T14:14:34.098Z,98523.19
2022-11-08T14:17:26.634Z,98526.75
2022-11-08T14:20:28.184Z,98533.06
2022-11-08T14:23:20.118Z,98532.66
2022-11-08T14:26:21.588Z,98531.53
2022-11-08T14:35:26.470Z,98543.75
2022-11-08T14:38:17.084Z,98547.31
2022-11-08T14:41:05.362Z,98538.19
2022-11-08T14:43:51.996Z,98541.75
2022-11-08T14:46:41.413Z,98535.84
2022-11-08T14:49:35.568Z,98538.97
2022-11-08T14:52:26.377Z,98541.41
2022-11-08T14:55:14.314Z,98543.41
2022-11-08T14:58:13.062Z,98539.41
2022-11-08T15:01:01.457Z,98538.97
2022-11-08T15:03:56.338Z,98525.09
2022-11-08T15:06:53.659Z,98534.53
2022-11-08T15:09:38.924Z,98529.69
2022-11-08T15:12:25.076Z,98527.31
2022-11-08T15:15:24.076Z,98542.44
2022-11-08T15:18:18.032Z,98542.88
2022-11-08T15:21:07.709Z,98542.44
2022-11-08T15:23:54.007Z,98532.88
2022-11-08T15:26:40.554Z,98544.00
2022-11-08T15:29:26.634Z,98545.56
2022-11-08T15:32:18.398Z,98539.66
2022-11-08T15:35:05.789Z,98551.88
2022-11-08T15:37:52.967Z,98553.91
2022-11-08T15:40:38.811Z,98547.44
2022-11-08T15:43:44.903Z,98533.56
2022-11-08T15:46:36.900Z,98533.56
2022-11-08T15:49:29.238Z,98529.59
2022-11-08T15:52:19.153Z,98538.69
2022-11-08T15:55:07.821Z,98535.16
2022-11-08T15:57:54.593Z,98529.25
2022-11-08T16:00:45.673Z,98532.03
2022-11-08T16:03:31.355Z,98530.44
2022-11-08T16:06:16.820Z,98526.47
2022-11-08T16:09:02.198Z,98531.69
2022-11-08T16:11:48.553Z,98529.25
2022-11-08T16:14:33.944Z,98526.47
2022-11-08T16:17:19.168Z,98524.47
2022-11-08T16:20:28.094Z,98521.59
2022-11-08T16:23:14.864Z,98517.59
2022-11-08T16:26:01.607Z,98518.03
2022-11-08T16:28:47.105Z,98510.03
2022-11-08T16:31:33.118Z,98510.28
2022-11-08T16:34:18.883Z,98507.94
2022-11-08T16:37:03.974Z,98503.97
2022-11-08T16:39:49.264Z,98505.94
2022-11-08T16:42:34.679Z,98502.31
2022-11-08T16:45:43.335Z,98502.97
2022-11-08T16:48:27.903Z,98504.53
2022-11-08T16:51:19.113Z,98506.19
2022-11-08T16:54:17.178Z,98508.84
2022-11-08T16:57:28.594Z,98518.00
2022-11-08T17:00:10.601Z,98506.41
2022-11-08T17:02:56.381Z,98506.06
2022-11-08T17:05:41.795Z,98504.88
2022-11-08T17:08:27.103Z,98508.44
2022-11-08T17:11:18.519Z,98506.06
2022-11-08T17:14:04.447Z,98503.75
2022-11-08T17:16:52.563Z,98505.31
2022-11-08T17:19:38.126Z,98510.44
2022-11-08T17:22:23.375Z,98510.78
2022-11-08T17:25:11.848Z,98503.63
2022-11-08T17:27:57.525Z,98513.09
2022-11-08T17:30:44.497Z,98510.78
2022-11-08T17:33:29.955Z,98521.09
2022-11-08T17:36:15.412Z,98520.22
2022-11-08T17:39:00.607Z,98516.22
2022-11-08T17:41:46.107Z,98513.00
2022-11-08T17:44:31.586Z,98511.09
2022-11-08T17:47:17.395Z,98518.56
2022-11-08T17:50:03.916Z,98522.56
2022-11-08T17:52:53.098Z,98515.44
2022-11-08T17:55:38.458Z,98517.44
2022-11-08T17:58:25.942Z,98518.63
2022-11-08T18:01:16.250Z,98516.31
2022-11-08T18:04:03.609Z,98520.31
2022-11-08T18:06:48.821Z,98529.44
2022-11-08T18:09:34.111Z,98525.88
2022-11-08T18:12:19.323Z,98517.19
2022-11-08T18:15:06.412Z,98518.75
2022-11-08T18:17:52.312Z,98515.63
2022-11-08T18:20:38.791Z,98509.75
2022-11-08T18:23:24.234Z,98508.50
2022-11-08T18:26:10.633Z,98511.63
2022-11-08T18:28:56.068Z,98512.44
2022-11-08T18:31:41.328Z,98507.31
2022-11-08T18:34:26.747Z,98506.97
2022-11-08T18:37:12.289Z,98507.84
2022-11-08T18:39:58.160Z,98502.72
2022-11-08T18:42:43.738Z,98497.63
2022-11-08T18:45:29.129Z,98497.28
2022-11-08T18:48:14.416Z,98491.06
2022-11-08T18:50:59.628Z,98490.72
2022-11-08T18:53:45.266Z,98492.34
2022-11-08T18:56:30.731Z,98494.00
2022-11-08T18:59:16.094Z,98489.34
2022-11-08T19:02:01.443Z,98493.34
2022-11-08T19:04:48.083Z,98488.66
2022-11-08T19:07:35.854Z,98484.34
2022-11-08T19:10:21.094Z,98485.19
2022-11-08T19:13:06.416Z,98489.22
2022-11-08T19:15:58.870Z,98481.72
2022-11-08T19:18:45.585Z,98484.97
2022-11-08T19:21:30.847Z,98478.31
2022-11-08T19:24:16.725Z,98482.75
2022-11-08T19:27:02.341Z,98474.84
2022-11-08T19:29:47.698Z,98476.50
2022-11-08T19:32:32.822Z,98479.69
2022-11-08T19:35:18.834Z,98481.69
2022-11-08T19:38:04.044Z,98482.09
2022-11-08T19:40:49.330Z,98483.34
2022-11-08T19:43:38.544Z,98490.09
2022-11-08T19:46:28.889Z,98501.19
2022-11-08T19:49:14.216Z,98496.50
2022-11-08T19:51:59.943Z,98491.41
2022-11-08T19:54:45.832Z,98500.94
2022-11-08T19:57:32.509Z,98489.50
2022-11-08T20:00:18.363Z,98498.25
2022-11-08T20:03:04.248Z,98490.34
2022-11-08T20:05:54.031Z,98489.59
2022-11-08T20:08:39.592Z,98498.34
2022-11-08T20:11:28.217Z,98504.69
2022-11-08T20:14:14.616Z,98501.56
2022-11-08T20:17:00.280Z,98500.78
2022-11-08T20:19:46.592Z,98503.22
2022-11-08T20:22:31.739Z,98505.19
2022-11-08T20:25:17.336Z,98503.66
2022-11-08T20:28:02.633Z,98505.66
2022-11-08T20:30:47.879Z,98509.19
2022-11-08T20:33:35.341Z,98513.97
2022-11-08T20:36:22.429Z,98502.53
2022-11-08T20:39:08.266Z,98506.50
2022-11-08T20:41:53.526Z,98514.03
2022-11-08T20:44:38.715Z,98508.50
2022-11-08T20:47:24.122Z,98516.47
2022-11-08T20:50:10.775Z,98499.06
2022-11-08T20:52:55.984Z,98503.84
2022-11-08T20:55:41.331Z,98511.38
2022-11-08T20:58:27.910Z,98512.56
2022-11-08T21:01:16.517Z,98510.56
2022-11-08T21:04:01.974Z,98510.56
2022-11-08T21:06:47.238Z,98513.34
2022-11-08T21:09:48.322Z,98499.94
2022-11-08T21:12:34.843Z,98509.03
2022-11-08T21:15:25.820Z,98510.22
2022-11-08T21:18:12.428Z,98514.59
2022-11-08T21:21:05.657Z,98507.47
2022-11-08T21:23:51.914Z,98503.13
2022-11-08T21:26:37.097Z,98507.91
2022-11-08T21:29:22.357Z,98508.69
2022-11-08T21:32:07.747Z,98509.88
2022-11-08T21:34:52.958Z,98503.91
2022-11-08T21:37:38.221Z,98498.78
2022-11-08T21:40:23.399Z,98499.59
2022-11-08T21:43:08.829Z,98510.69
2022-11-08T21:45:54.143Z,98494.03
2022-11-08T21:48:39.397Z,98496.00
2022-11-08T21:51:26.068Z,98499.59
2022-11-08T21:54:11.484Z,98491.69
2022-11-08T21:56:56.770Z,98494.47
2022-11-08T21:59:41.943Z,98493.69
2022-11-08T22:02:27.453Z,98491.69
2022-11-08T22:05:12.696Z,98489.34
2022-11-08T22:07:57.904Z,98485.38
2022-11-08T22:10:45.677Z,98481.81
2022-11-08T22:13:31.262Z,98473.50
2022-11-08T22:16:16.528Z,98478.25
2022-11-08T22:19:05.893Z,98479.06
2022-11-08T22:21:51.524Z,98470.72
2022-11-08T22:24:36.865Z,98483.03
2022-11-08T22:27:22.326Z,98469.94
2022-11-08T22:30:10.424Z,98481.03
2022-11-08T22:33:00.713Z,98477.47
2022-11-08T22:35:47.366Z,98476.69
2022-11-08T22:38:32.766Z,98477.47
2022-11-08T22:41:19.275Z,98473.16
2022-11-08T22:44:10.552Z,98477.91
2022-11-08T22:46:57.430Z,98481.47
2022-11-08T22:49:45.127Z,98474.34
2022-11-08T22:52:30.894Z,98478.72
2022-11-08T22:55:16.378Z,98471.59
2022-11-08T22:58:01.634Z,98476.69
2022-11-08T23:00:46.971Z,98475.94
2022-11-08T23:03:32.284Z,98477.47
2022-11-08T23:06:17.532Z,98474.34
2022-11-08T23:09:03.417Z,98475.94
2022-11-08T23:12:07.845Z,98470.38
2022-11-08T23:15:11.940Z,98473.16
2022-11-08T23:17:57.202Z,98470.03
2022-11-08T23:21:01.138Z,98468.03
2022-11-08T23:24:05.070Z,98463.69
2022-11-08T23:27:09.093Z,98471.25
2022-11-08T23:30:12.901Z,98475.25
2022-11-08T23:32:57.999Z,98464.16
2022-11-08T23:36:03.422Z,98462.56
2022-11-08T23:38:48.976Z,98472.13
2022-11-08T23:41:52.772Z,98459.44
2022-11-08T23:44:37.951Z,98458.25
2022-11-08T23:47:23.229Z,98457.47
2022-11-08T23:50:09.954Z,98459.44
2022-11-08T23:52:55.385Z,98459.44
2022-11-08T23:55:40.614Z,98459.44
2022-11-08T23:58:26.641Z,98457.91
